Flight Track Log - Related Links

Times and Time Zones

All times are in EDT time to prevent confusion due to time zone crossing. See the N813JE flight status page for this flight to view local times or setup timezone preferences in your user account.

Time Position Orientation Groundspeed Altitude Reporting Facility
EDT Latitude Longitude Course Direction KTS MPH feet Rate Location/Type
Tue 01:42:49 PM 39.1833 -77.1333 57° Northeast 119 137 2,500  Level Potomac TRACON
Tue 01:43:43 PM 39.2167 -77.1333 360° North 121 139 3,600 1,200 Climbing Potomac TRACON
Tue 01:44:44 PM 39.2500 -77.1167 21° North 127 146 4,800 1,039 Climbing Potomac TRACON
Tue 01:45:50 PM 39.2833 -77.1000 21° North 125 144 5,800 952 Climbing Potomac TRACON
Tue 01:46:50 PM 39.3167 -77.0667 38° Northeast 136 157 6,800 950 Climbing Potomac TRACON
Tue 01:47:50 PM 39.3500 -77.0500 21° North 134 154 7,700 850 Climbing Potomac TRACON
Tue 01:48:00 PM 39.3834 -76.8167 57° Northeast  Level FlightAware Approximate
Tue 01:48:50 PM 39.3667 -77.0167 57° Northeast 135 155 8,500  Level Potomac TRACON
Tue 01:49:50 PM 39.4000 -76.9833 38° Northeast 144 166 9,000 250 Climbing Potomac TRACON
Tue 01:50:50 PM 39.4500 -76.9500 27° Northeast 167 192 9,000  Level Potomac TRACON
Tue 01:51:50 PM 39.4833 -76.9167 38° Northeast 171 197 9,000  Level Potomac TRACON
Tue 01:52:50 PM 39.5167 -76.8833 38° Northeast 170 196 9,000  Level Potomac TRACON
Tue 01:53:56 PM 39.5667 -76.8333 38° Northeast 171 197 9,000  Level Potomac TRACON
Tue 01:54:50 PM 39.6000 -76.8000 38° Northeast 170 196 9,000  Level Potomac TRACON
Tue 01:56:54 PM 39.6731 -76.7292 37° Northeast 190 219 9,000  Level New York Center
Tue 01:57:51 PM 39.7103 -76.6944 36° Northeast 178 205 9,000  Level New York Center
Tue 01:58:51 PM 39.7478 -76.6572 37° Northeast 173 199 9,000  Level New York Center
Tue 01:59:53 PM 39.7869 -76.6200 36° Northeast 168 193 9,000  Level New York Center
Tue 02:00:51 PM 39.8242 -76.5853 36° Northeast 163 188 9,000  Level New York Center
Tue 02:01:51 PM 39.8594 -76.5503 37° Northeast 163 188 9,000  Level New York Center
Tue 02:02:52 PM 39.8989 -76.5075 40° Northeast 158 182 9,000  Level New York Center
Tue 02:03:52 PM 39.9361 -76.4725 36° Northeast 164 189 9,000  Level New York Center
Tue 02:04:51 PM 39.9711 -76.4375 37° Northeast 164 189 9,000  Level New York Center
Tue 02:05:51 PM 40.0061 -76.4025 37° Northeast 159 183 9,000  Level New York Center
Tue 02:06:52 PM 40.0478 -76.3625 36° Northeast 159 183 9,000  Level New York Center
Tue 02:07:52 PM 40.0850 -76.3247 38° Northeast 159 183 9,000  Level New York Center
Tue 02:08:53 PM 40.1222 -76.2869 38° Northeast 159 183 9,000  Level New York Center
Tue 02:09:51 PM 40.1508 -76.2511 44° Northeast 159 183 9,000  Level New York Center
Tue 02:10:52 PM 40.1883 -76.2053 43° Northeast 164 189 9,000  Level New York Center
Tue 02:11:52 PM 40.2194 -76.1669 43° Northeast 164 189 9,000  Level New York Center
Tue 02:12:53 PM 40.2550 -76.1181 46° Northeast 169 194 9,000  Level New York Center
Tue 02:13:52 PM 40.2839 -76.0767 48° Northeast 169 194 9,000  Level New York Center
Tue 02:14:52 PM 40.3236 -76.0306 42° Northeast 164 189 9,000  Level New York Center
Tue 02:15:52 PM 40.3522 -75.9919 46° Northeast 164 189 9,000  Level New York Center
Tue 02:16:53 PM 40.3900 -75.9403 46° Northeast 164 189 9,000  Level New York Center
Tue 02:17:51 PM 40.4189 -75.8989 47° Northeast 164 189 9,000  Level New York Center
Tue 02:18:52 PM 40.4564 -75.8497 45° Northeast 169 194 9,000 -248 Level New York Center
Tue 02:19:52 PM 40.4897 -75.8058 45° Northeast 164 189 8,500 -496 Descending New York Center
Tue 02:20:53 PM 40.5206 -75.7644 46° Northeast 164 189 8,000 -504 Descending New York Center
Tue 02:21:51 PM 40.5536 -75.7203 45° Northeast 164 189 7,500 -508 Descending New York Center
Tue 02:22:51 PM 40.5911 -75.6711 45° Northeast 164 189 7,000 -496 Descending New York Center
Tue 02:23:52 PM 40.6203 -75.6242 51° Northeast 164 189 6,500 -500 Descending New York Center
Tue 02:24:51 PM 40.6492 -75.5769 51° Northeast 159 183 6,000 -500 Descending New York Center
Tue 02:25:52 PM 40.6761 -75.5294 53° Northeast 159 183 5,500 -492 Descending New York Center
Tue 02:26:53 PM 40.7050 -75.4850 49° Northeast 159 183 5,000 -252 Descending New York Center
Tue 02:27:51 PM 40.7317 -75.4458 48° Northeast 154 177 5,000  Level New York Center
Tue 02:28:52 PM 40.7600 -75.4119 42° Northeast 149 171 5,000  Level New York Center
Tue 02:29:53 PM 40.7928 -75.3731 42° Northeast 149 171 5,000  Level New York Center
Tue 02:31:00 PM 40.8276 -75.3291 44° Northeast  Level FlightAware Approximate
Tue 02:38:00 PM 41.0452 -75.0529 44° Northeast  Level FlightAware Approximate
Tue 02:39:00 PM 41.0763 -75.0132 44° Northeast  Level FlightAware Approximate
Tue 02:40:00 PM 41.1073 -74.9736 44° Northeast  Level FlightAware Approximate
Tue 02:41:00 PM 41.1383 -74.9339 44° Northeast  Level FlightAware Approximate
Tue 02:42:00 PM 41.1693 -74.8941 44° Northeast  Level FlightAware Approximate
Tue 02:42:18 PM 41.1833 -74.8667 46° Northeast 157 181 5,000  Level New York TRACON
Tue 02:43:00 PM 41.2003 -74.8544 44° Northeast  Level FlightAware Approximate
Tue 02:43:18 PM 41.2167 -74.8333 37° Northeast 157 181 5,000  Level New York TRACON
Tue 02:44:00 PM 41.2309 -74.8140 46° Northeast  Level FlightAware Approximate
Tue 02:44:18 PM 41.2500 -74.8000 37° Northeast 160 184 5,000  Level New York TRACON
Tue 02:45:00 PM 41.2610 -74.7730 46° Northeast  Level FlightAware Approximate
Tue 02:45:18 PM 41.2833 -74.7500 48° Northeast 162 186 5,000  Level New York TRACON
Tue 02:46:00 PM 41.2911 -74.7320 46° Northeast  Level FlightAware Approximate
Tue 02:46:18 PM 41.3167 -74.7167 37° Northeast 162 186 5,000  Level New York TRACON
Tue 02:47:00 PM 41.3212 -74.6910 46° Northeast  Level FlightAware Approximate
Tue 02:47:18 PM 41.3500 -74.6667 48° Northeast 159 183 5,000  Level New York TRACON
Tue 02:48:19 PM 41.3833 -74.6333 37° Northeast 161 185 5,000  Level New York TRACON
Tue 02:49:19 PM 41.4167 -74.5833 48° Northeast 163 188 5,000  Level New York TRACON
Tue 02:50:19 PM 41.4333 -74.5333 66° East 157 181 5,000  Level New York TRACON
Tue 02:51:19 PM 41.4500 -74.4833 66° East 155 178 5,000  Level New York TRACON
Tue 02:52:19 PM 41.4667 -74.4333 66° East 153 176 5,000  Level New York TRACON
Tue 02:53:19 PM 41.4833 -74.3833 66° East 154 177 5,000  Level New York TRACON
Tue 02:54:19 PM 41.5000 -74.3167 72° East 155 178 5,000  Level New York TRACON
Tue 02:55:19 PM 41.5167 -74.2667 66° East 154 177 5,000 -250 Level New York TRACON
Tue 02:56:19 PM 41.5167 -74.2167 90° East 159 183 4,500 -500 Descending New York TRACON
Tue 02:57:19 PM 41.5167 -74.1667 90° East 150 173 4,000 -500 Descending New York TRACON
Tue 02:58:19 PM 41.5000 -74.1167 114° Southeast 139 160 3,500 -496 Descending New York TRACON
Tue 02:59:20 PM 41.4833 -74.0667 114° Southeast 140 161 3,000 -298 Descending New York TRACON
Tue 03:00:20 PM 41.4667 -74.0167 114° Southeast 134 154 2,900 -50 Descending New York TRACON
Tue 03:01:20 PM 41.4667 -73.9667 90° East 141 162 2,900  Level New York TRACON
Tue 03:02:20 PM 41.4500 -73.9333 124° Southeast 139 160 2,900  Level New York TRACON
Tue 03:03:14 PM 41.4333 -73.8833 114° Southeast 133 153 2,900  Level New York TRACON
Tue 03:04:14 PM 41.4000 -73.8500 143° Southeast 138 159 2,900  Level New York TRACON
Tue 03:05:14 PM 41.3667 -73.8333 159° South 143 165 2,900  Level New York TRACON
Tue 03:06:20 PM 41.3333 -73.8000 143° Southeast 142 163 2,900 50 Level New York TRACON
Tue 03:07:14 PM 41.3000 -73.7833 159° South 140 161 3,000 50 Climbing New York TRACON
Tue 03:08:20 PM 41.2667 -73.7667 159° South 137 158 3,000  Level New York TRACON
Tue 03:09:21 PM 41.2333 -73.7333 143° Southeast 138 159 3,000  Level New York TRACON
Tue 03:10:21 PM 41.2000 -73.7167 159° South 138 159 3,000  Level New York TRACON
Tue 03:11:27 PM 41.1667 -73.6833 143° Southeast 137 158 3,000  Level New York TRACON
Tue 03:12:27 PM 41.1333 -73.6667 159° South 131 151 3,000  Level New York TRACON
Tue 03:13:27 PM 41.1000 -73.6333 143° Southeast 125 144 3,000 -50 Level New York TRACON
Tue 03:14:27 PM 41.0833 -73.6000 124° Southeast 120 138 2,900 -300 Descending New York TRACON
Tue 03:15:27 PM 41.0500 -73.5667 143° Southeast 136 157 2,400 -474 Descending New York TRACON
Tue 03:16:21 PM 41.0167 -73.5500 159° South 141 162 2,000 -209 Descending New York TRACON
Tue 03:17:22 PM 40.9833 -73.5500 180° South 134 154 2,000  Level New York TRACON
Tue 03:18:27 PM 40.9500 -73.5833 217° Southwest 143 165 2,000  Level New York TRACON
Tue 03:19:28 PM 40.9667 -73.6167 304° West 137 158 2,000  Level New York TRACON
Tue 03:20:28 PM 40.9833 -73.6500 304° West 116 133 2,000 -263 Level New York TRACON
Tue 03:21:22 PM 41.0167 -73.6667 339° North 103 119 1,500 -500 Descending New York TRACON
Tue 03:22:28 PM 41.0333 -73.6833 323° Northwest 89 102 1,000 -455 Descending New York TRACON

Login

Don't have an account? Register now (free) for customized features, flight alerts, and more!